Time;durP1;ratioP1;P1;durP2;ratioP2;P2;SDS_P1;SDS_P2;PMS_P1;PMS_P2;Temp;Humidity;BMP_temperature;BMP_pressure;BME280_temperature;BME280_humidity;BME280_pressure;Samples;Min_cycle;Max_cycle;Signal;HPM_P1;HPM_P2
2023/06/28 00:01:23;;;;;;;;;;;18.20;64.20;;;;;;5075568;28;19912;-28
2023/06/28 00:03:49;;;;;;;;;;;18.20;64.20;;;;;;5075502;28;19908;-30
2023/06/28 00:06:14;;;;;;;;;;;18.10;64.20;;;;;;5075431;28;20411;-27
2023/06/28 00:08:40;;;;;;;;;;;18.20;64.30;;;;;;5075425;28;19909;-27
2023/06/28 00:11:06;;;;;;;;;;;18.10;64.20;;;;;;5075500;28;19991;-31
2023/06/28 00:13:32;;;;;;;;;;;18.10;64.10;;;;;;5075179;28;19912;-33
2023/06/28 00:15:58;;;;;;;;;;;18.20;64.20;;;;;;5075243;28;19915;-28
2023/06/28 00:18:25;;;;;;;;;;;18.20;64.20;;;;;;5075147;28;20007;-29
2023/06/28 00:20:51;;;;;;;;;;;18.20;64.20;;;;;;5075124;28;19958;-26
2023/06/28 00:23:16;;;;;;;;;;;18.20;64.20;;;;;;5075046;28;19916;-31
2023/06/28 00:25:42;;;;;;;;;;;18.20;64.20;;;;;;5075109;28;19962;-31
2023/06/28 00:28:07;;;;;;;;;;;18.30;64.30;;;;;;5074952;28;19927;-28
2023/06/28 00:30:33;;;;;;;;;;;18.30;64.30;;;;;;5074819;28;19915;-29
2023/06/28 00:32:58;;;;;;;;;;;18.30;64.40;;;;;;5074717;28;19909;-28
2023/06/28 00:35:24;;;;;;;;;;;18.30;64.30;;;;;;5074909;28;19908;-27
2023/06/28 00:37:49;;;;;;;;;;;18.30;64.30;;;;;;5074800;28;20015;-29
2023/06/28 00:40:15;;;;;;;;;;;18.30;64.30;;;;;;5074788;28;19908;-33
2023/06/28 00:42:40;;;;;;;;;;;18.30;64.40;;;;;;5075008;28;19908;-27
2023/06/28 00:45:06;;;;;;;;;;;18.30;64.30;;;;;;5056764;28;19999;-30
2023/06/28 00:47:31;;;;;;;;;;;18.30;64.40;;;;;;5074668;28;19908;-28
2023/06/28 00:49:57;;;;;;;;;;;18.30;64.40;;;;;;5074654;28;19908;-29
2023/06/28 00:52:23;;;;;;;;;;;18.30;64.40;;;;;;5074535;28;19908;-28
2023/06/28 00:54:49;;;;;;;;;;;18.40;64.50;;;;;;5074386;28;19921;-32
2023/06/28 00:57:15;;;;;;;;;;;18.30;64.40;;;;;;5074467;28;19947;-30
2023/06/28 00:59:41;;;;;;;;;;;18.30;64.50;;;;;;5073891;28;19991;-31
2023/06/28 01:02:06;;;;;;;;;;;18.30;64.50;;;;;;5074388;28;19943;-29
2023/06/28 01:04:32;;;;;;;;;;;18.30;64.50;;;;;;5074419;28;19954;-28
2023/06/28 01:06:59;;;;;;;;;;;18.30;64.50;;;;;;5074350;28;19909;-30
2023/06/28 01:09:26;;;;;;;;;;;18.30;64.50;;;;;;5056242;28;19908;-29
2023/06/28 01:11:52;;;;;;;;;;;18.30;64.60;;;;;;5074241;28;19914;-28
2023/06/28 01:14:18;;;;;;;;;;;18.30;64.70;;;;;;5074073;28;19919;-28
2023/06/28 01:16:45;;;;;;;;;;;18.20;64.70;;;;;;5074228;28;20384;-30
2023/06/28 01:19:13;;;;;;;;;;;18.20;64.80;;;;;;5074005;28;19924;-26
2023/06/28 01:21:40;;;;;;;;;;;18.20;64.90;;;;;;5074037;28;19908;-29
2023/06/28 01:24:10;;;;;;;;;;;18.20;65.00;;;;;;5074389;28;19919;-29
2023/06/28 01:26:37;;;;;;;;;;;18.10;65.00;;;;;;5073817;28;19912;-27
2023/06/28 01:29:03;;;;;;;;;;;18.10;65.10;;;;;;5073923;28;20065;-26
2023/06/28 01:31:30;;;;;;;;;;;18.20;65.20;;;;;;5073832;28;20417;-27
2023/06/28 01:33:56;;;;;;;;;;;18.10;65.10;;;;;;5073707;28;19912;-27
2023/06/28 01:36:21;;;;;;;;;;;18.20;65.20;;;;;;5073744;28;19912;-29
2023/06/28 01:38:47;;;;;;;;;;;18.20;65.30;;;;;;5073855;28;19962;-28
2023/06/28 01:41:13;;;;;;;;;;;18.20;65.40;;;;;;5073709;28;20388;-27
2023/06/28 01:43:40;;;;;;;;;;;18.20;65.40;;;;;;5073662;28;19975;-29
2023/06/28 01:46:05;;;;;;;;;;;18.20;65.50;;;;;;5073551;28;19939;-28
2023/06/28 01:48:31;;;;;;;;;;;18.20;65.60;;;;;;5073448;28;19909;-29
2023/06/28 01:50:57;;;;;;;;;;;18.20;65.60;;;;;;5073442;28;19919;-27
2023/06/28 01:53:22;;;;;;;;;;;18.20;65.80;;;;;;5073347;28;20011;-26
2023/06/28 01:55:48;;;;;;;;;;;18.10;65.90;;;;;;5073475;28;20351;-30
2023/06/28 01:58:13;;;;;;;;;;;18.10;66.00;;;;;;5073679;28;19915;-28
2023/06/28 02:00:39;;;;;;;;;;;18.10;66.20;;;;;;5073250;28;20136;-28
2023/06/28 02:03:04;;;;;;;;;;;18.10;66.30;;;;;;5073138;28;19957;-27
2023/06/28 02:05:30;;;;;;;;;;;18.10;66.50;;;;;;5073243;28;19909;-30
2023/06/28 02:07:56;;;;;;;;;;;18.10;66.60;;;;;;5073281;28;20372;-27
2023/06/28 02:10:23;;;;;;;;;;;18.10;66.70;;;;;;5072315;28;19912;-28
2023/06/28 02:12:49;;;;;;;;;;;18.10;66.80;;;;;;5055124;28;19908;-30
2023/06/28 02:15:14;;;;;;;;;;;18.10;67.00;;;;;;5073008;28;20399;-27
2023/06/28 02:17:40;;;;;;;;;;;18.10;67.10;;;;;;5072970;28;19947;-28
2023/06/28 02:20:10;;;;;;;;;;;18.10;67.30;;;;;;5072895;28;19961;-26
2023/06/28 02:22:35;;;;;;;;;;;18.10;67.40;;;;;;5072918;28;19916;-27
2023/06/28 02:25:01;;;;;;;;;;;18.10;67.60;;;;;;5073028;28;19913;-26
2023/06/28 02:27:26;;;;;;;;;;;18.10;67.80;;;;;;5072688;28;19924;-28
2023/06/28 02:29:51;;;;;;;;;;;18.10;67.90;;;;;;5072684;28;19912;-27
2023/06/28 02:32:17;;;;;;;;;;;18.10;68.10;;;;;;5072681;28;20003;-28
2023/06/28 02:34:43;;;;;;;;;;;18.10;68.20;;;;;;5072488;28;19957;-27
2023/06/28 02:37:08;;;;;;;;;;;18.10;68.20;;;;;;5071021;28;19962;-28
2023/06/28 02:39:34;;;;;;;;;;;18.10;68.30;;;;;;5071250;28;19932;-31
2023/06/28 02:41:59;;;;;;;;;;;18.10;68.40;;;;;;5071274;28;20205;-27
2023/06/28 02:44:25;;;;;;;;;;;18.10;68.70;;;;;;5072561;28;20368;-26
2023/06/28 02:46:50;;;;;;;;;;;18.10;68.90;;;;;;5072472;28;19909;-27
2023/06/28 02:49:16;;;;;;;;;;;18.00;69.00;;;;;;5072412;28;19913;-28
2023/06/28 02:51:41;;;;;;;;;;;18.00;69.00;;;;;;5072540;28;20338;-27
2023/06/28 02:54:06;;;;;;;;;;;18.10;69.20;;;;;;5072257;28;20007;-27
2023/06/28 02:56:33;;;;;;;;;;;18.00;69.30;;;;;;5072304;28;19909;-27
2023/06/28 02:58:58;;;;;;;;;;;18.00;69.40;;;;;;5072254;28;20013;-29
2023/06/28 03:01:25;;;;;;;;;;;18.00;69.50;;;;;;5072358;28;19952;-26
2023/06/28 03:03:51;;;;;;;;;;;18.00;69.70;;;;;;5072241;28;19909;-27
2023/06/28 03:06:16;;;;;;;;;;;17.90;69.70;;;;;;5054295;28;20284;-26
2023/06/28 03:08:42;;;;;;;;;;;17.90;69.90;;;;;;5072116;28;20323;-26
2023/06/28 03:11:07;;;;;;;;;;;17.80;70.00;;;;;;5072241;28;19948;-27
2023/06/28 03:13:33;;;;;;;;;;;17.90;70.20;;;;;;5072075;28;19916;-28
2023/06/28 03:15:59;;;;;;;;;;;17.80;70.20;;;;;;5072287;28;19970;-26
2023/06/28 03:18:24;;;;;;;;;;;17.80;70.30;;;;;;5071990;28;19909;-27
2023/06/28 03:20:50;;;;;;;;;;;17.80;71.00;;;;;;5072180;28;20409;-28
2023/06/28 03:23:15;;;;;;;;;;;17.80;70.40;;;;;;5071858;28;20154;-27
2023/06/28 03:25:41;;;;;;;;;;;17.80;70.50;;;;;;5053872;28;19992;-30
2023/06/28 03:28:06;;;;;;;;;;;17.80;70.60;;;;;;5071714;28;20277;-31
2023/06/28 03:30:32;;;;;;;;;;;17.70;70.70;;;;;;5071814;28;19916;-27
2023/06/28 03:32:57;;;;;;;;;;;17.70;70.80;;;;;;5071765;28;20012;-28
2023/06/28 03:35:23;;;;;;;;;;;17.70;70.90;;;;;;5071863;28;19909;-28
2023/06/28 03:37:49;;;;;;;;;;;17.70;71.00;;;;;;5071978;28;19909;-28
2023/06/28 03:40:15;;;;;;;;;;;17.70;71.00;;;;;;5071864;28;19908;-27
2023/06/28 03:42:40;;;;;;;;;;;17.70;71.10;;;;;;5071799;28;19909;-29
2023/06/28 03:45:06;;;;;;;;;;;17.70;71.10;;;;;;5071734;28;19913;-26
2023/06/28 03:47:31;;;;;;;;;;;17.70;71.10;;;;;;5071849;28;19908;-29
2023/06/28 03:49:57;;;;;;;;;;;17.70;71.10;;;;;;5071780;28;19913;-28
2023/06/28 03:52:22;;;;;;;;;;;17.70;71.90;;;;;;5071673;28;19908;-28
2023/06/28 03:54:48;;;;;;;;;;;17.70;71.20;;;;;;5071737;28;19912;-29
2023/06/28 03:57:13;;;;;;;;;;;17.70;71.10;;;;;;5071666;28;20393;-26
2023/06/28 03:59:39;;;;;;;;;;;17.70;71.10;;;;;;5071752;28;20216;-29
2023/06/28 04:02:04;;;;;;;;;;;17.70;71.20;;;;;;5071373;28;19909;-27
2023/06/28 04:04:30;;;;;;;;;;;17.70;71.20;;;;;;5071470;28;19908;-28
2023/06/28 04:06:55;;;;;;;;;;;17.70;71.20;;;;;;5071833;28;19908;-31
2023/06/28 04:09:21;;;;;;;;;;;17.70;71.30;;;;;;5071510;28;19916;-28
2023/06/28 04:11:46;;;;;;;;;;;17.70;71.30;;;;;;5071671;28;19958;-27
2023/06/28 04:14:12;;;;;;;;;;;17.70;71.30;;;;;;5071264;28;19930;-29
2023/06/28 04:16:37;;;;;;;;;;;17.70;71.40;;;;;;5071532;28;20350;-30
2023/06/28 04:19:03;;;;;;;;;;;17.70;71.40;;;;;;5071297;28;19915;-26
2023/06/28 04:21:29;;;;;;;;;;;17.70;71.50;;;;;;5071492;28;19958;-28
2023/06/28 04:23:54;;;;;;;;;;;17.70;71.50;;;;;;5071600;28;19948;-25
2023/06/28 04:26:20;;;;;;;;;;;17.70;71.50;;;;;;5071321;28;19916;-28
2023/06/28 04:28:45;;;;;;;;;;;17.70;71.70;;;;;;5071235;28;20423;-27
2023/06/28 04:31:11;;;;;;;;;;;17.70;71.70;;;;;;5071244;28;19962;-30
2023/06/28 04:33:37;;;;;;;;;;;17.80;71.80;;;;;;5072193;28;19922;-29
2023/06/28 04:36:02;;;;;;;;;;;17.70;71.90;;;;;;5074939;28;20250;-28
2023/06/28 04:38:31;;;;;;;;;;;17.70;72.00;;;;;;5074961;28;19915;-28
2023/06/28 04:40:56;;;;;;;;;;;17.70;72.10;;;;;;5074853;28;19912;-27
2023/06/28 04:43:22;;;;;;;;;;;17.80;72.20;;;;;;5074712;28;19958;-27
2023/06/28 04:45:48;;;;;;;;;;;17.80;72.30;;;;;;5074794;28;19909;-32
2023/06/28 04:48:14;;;;;;;;;;;17.70;72.30;;;;;;5074675;28;19915;-27
2023/06/28 04:50:39;;;;;;;;;;;17.70;72.20;;;;;;5074659;28;19919;-30
2023/06/28 04:53:05;;;;;;;;;;;17.70;72.30;;;;;;5074422;28;20287;-26
2023/06/28 04:55:34;;;;;;;;;;;17.70;72.30;;;;;;5074597;28;19958;-28
2023/06/28 04:58:03;;;;;;;;;;;17.70;72.30;;;;;;5074676;28;19909;-28
2023/06/28 05:00:29;;;;;;;;;;;17.70;72.40;;;;;;5074652;28;19919;-28
2023/06/28 05:02:59;;;;;;;;;;;17.60;72.40;;;;;;5074422;28;19952;-27
2023/06/28 05:05:25;;;;;;;;;;;17.60;72.50;;;;;;5074418;28;19912;-30
2023/06/28 05:07:55;;;;;;;;;;;17.60;72.60;;;;;;5074326;28;19916;-30
2023/06/28 05:10:21;;;;;;;;;;;17.60;72.60;;;;;;5074325;28;19919;-29
2023/06/28 05:12:48;;;;;;;;;;;17.60;73.20;;;;;;5074211;28;19917;-28
2023/06/28 05:15:13;;;;;;;;;;;17.60;72.70;;;;;;5074187;28;19912;-25
2023/06/28 05:17:39;;;;;;;;;;;17.70;72.70;;;;;;5074326;28;19908;-27
2023/06/28 05:20:05;;;;;;;;;;;17.70;72.80;;;;;;5073985;28;19908;-27
2023/06/28 05:22:30;;;;;;;;;;;17.70;72.90;;;;;;5073985;28;19915;-31
2023/06/28 05:24:56;;;;;;;;;;;17.70;72.90;;;;;;5055977;28;20295;-27
2023/06/28 05:27:21;;;;;;;;;;;17.70;73.00;;;;;;5073718;28;19920;-28
2023/06/28 05:29:48;;;;;;;;;;;17.70;73.00;;;;;;5073186;28;21545;-28
2023/06/28 05:32:14;;;;;;;;;;;17.70;73.00;;;;;;5073889;28;19951;-28
2023/06/28 05:34:39;;;;;;;;;;;17.70;73.00;;;;;;5073749;28;19913;-29
2023/06/28 05:37:05;;;;;;;;;;;17.70;73.00;;;;;;5073689;28;20007;-29
2023/06/28 05:39:31;;;;;;;;;;;17.70;73.20;;;;;;5073770;28;19909;-30
2023/06/28 05:41:56;;;;;;;;;;;17.70;73.20;;;;;;5073635;28;19912;-27
2023/06/28 05:44:22;;;;;;;;;;;17.70;73.30;;;;;;5073534;28;19908;-27
2023/06/28 05:46:47;;;;;;;;;;;17.70;73.20;;;;;;5073673;28;19914;-27
2023/06/28 05:49:13;;;;;;;;;;;17.70;73.40;;;;;;5055481;28;19909;-29
2023/06/28 05:51:38;;;;;;;;;;;17.60;73.20;;;;;;5073605;28;19908;-28
2023/06/28 05:54:04;;;;;;;;;;;17.60;73.40;;;;;;5073401;28;19912;-31
2023/06/28 05:56:30;;;;;;;;;;;17.70;73.40;;;;;;5073603;28;20406;-31
2023/06/28 05:58:56;;;;;;;;;;;17.70;73.40;;;;;;5073272;28;19908;-27
2023/06/28 06:01:24;;;;;;;;;;;17.60;73.30;;;;;;5073211;28;19915;-29
2023/06/28 06:03:50;;;;;;;;;;;17.70;73.30;;;;;;5072999;28;19916;-31
2023/06/28 06:06:15;;;;;;;;;;;17.70;73.30;;;;;;5054999;28;19908;-27
2023/06/28 06:08:41;;;;;;;;;;;17.70;73.30;;;;;;5073162;28;19962;-30
2023/06/28 06:11:06;;;;;;;;;;;17.70;73.40;;;;;;5073151;28;20356;-30
2023/06/28 06:13:32;;;;;;;;;;;17.70;73.40;;;;;;5072912;28;20391;-31
2023/06/28 06:15:57;;;;;;;;;;;17.60;73.30;;;;;;5055067;28;19958;-28
2023/06/28 06:18:23;;;;;;;;;;;17.60;73.30;;;;;;5072897;28;19979;-26
2023/06/28 06:20:50;;;;;;;;;;;17.60;73.30;;;;;;5072959;28;20407;-29
2023/06/28 06:23:17;;;;;;;;;;;17.60;73.30;;;;;;5072710;28;20006;-28
2023/06/28 06:25:42;;;;;;;;;;;17.60;73.30;;;;;;5072840;28;19922;-29
2023/06/28 06:28:08;;;;;;;;;;;17.70;73.30;;;;;;5072543;28;20015;-28
2023/06/28 06:30:33;;;;;;;;;;;17.70;73.30;;;;;;5072929;28;19909;-29
2023/06/28 06:32:59;;;;;;;;;;;17.80;73.30;;;;;;5072685;28;19979;-28
2023/06/28 06:35:25;;;;;;;;;;;17.80;73.20;;;;;;5072533;28;19960;-28
2023/06/28 06:37:51;;;;;;;;;;;17.90;73.20;;;;;;5072906;28;20372;-26
2023/06/28 06:40:16;;;;;;;;;;;17.90;73.20;;;;;;5072503;28;19944;-26
2023/06/28 06:42:42;;;;;;;;;;;17.90;73.20;;;;;;5072572;28;19938;-29
2023/06/28 06:45:07;;;;;;;;;;;18.00;73.30;;;;;;5072763;28;19909;-28
2023/06/28 06:47:36;;;;;;;;;;;17.90;73.40;;;;;;5072727;28;19969;-27
2023/06/28 06:50:01;;;;;;;;;;;17.90;73.50;;;;;;5072520;28;19940;-27
2023/06/28 06:52:27;;;;;;;;;;;17.90;73.50;;;;;;5072407;28;19921;-30
2023/06/28 06:54:52;;;;;;;;;;;17.90;73.70;;;;;;5072234;28;19934;-26
2023/06/28 06:57:18;;;;;;;;;;;17.90;73.80;;;;;;5071914;28;19959;-27
2023/06/28 06:59:43;;;;;;;;;;;17.80;73.90;;;;;;5072329;28;20352;-26
2023/06/28 07:02:09;;;;;;;;;;;17.80;73.90;;;;;;5072101;28;19909;-27
2023/06/28 07:04:34;;;;;;;;;;;17.90;74.00;;;;;;5054149;28;19912;-29
2023/06/28 07:07:00;;;;;;;;;;;17.90;73.90;;;;;;5054116;28;19909;-28
2023/06/28 07:09:26;;;;;;;;;;;17.90;74.00;;;;;;5072426;28;19908;-26
2023/06/28 07:11:52;;;;;;;;;;;17.90;74.00;;;;;;5072136;28;19999;-28
2023/06/28 07:14:17;;;;;;;;;;;18.00;74.10;;;;;;5054015;28;20423;-29
2023/06/28 07:16:45;;;;;;;;;;;18.00;74.10;;;;;;5072063;28;19908;-28
2023/06/28 07:19:10;;;;;;;;;;;18.10;74.20;;;;;;5072155;28;20364;-27
2023/06/28 07:21:36;;;;;;;;;;;18.10;74.10;;;;;;5072022;28;19923;-27
2023/06/28 07:24:02;;;;;;;;;;;18.20;74.70;;;;;;5072113;28;19908;-28
2023/06/28 07:26:27;;;;;;;;;;;18.20;74.00;;;;;;5071942;28;19913;-28
2023/06/28 07:28:53;;;;;;;;;;;18.20;73.90;;;;;;5071727;28;19924;-28
2023/06/28 07:31:18;;;;;;;;;;;18.20;73.90;;;;;;5072343;28;19908;-27
2023/06/28 07:33:44;;;;;;;;;;;18.20;73.90;;;;;;5071888;28;19934;-30
2023/06/28 07:36:09;;;;;;;;;;;18.20;73.80;;;;;;5071868;28;19909;-26
2023/06/28 07:38:35;;;;;;;;;;;18.30;73.80;;;;;;5071921;28;19954;-29
2023/06/28 07:41:00;;;;;;;;;;;18.30;73.90;;;;;;5072176;28;19948;-37
2023/06/28 07:43:26;;;;;;;;;;;18.30;73.80;;;;;;5054089;28;19908;-28
2023/06/28 07:45:52;;;;;;;;;;;18.40;73.90;;;;;;5053836;28;19915;-27
2023/06/28 07:48:18;;;;;;;;;;;18.40;73.70;;;;;;5071715;28;20279;-28
2023/06/28 07:50:44;;;;;;;;;;;18.50;73.60;;;;;;5071808;28;19908;-28
2023/06/28 07:53:09;;;;;;;;;;;18.50;73.70;;;;;;5071688;28;20341;-28
2023/06/28 07:55:35;;;;;;;;;;;18.50;73.70;;;;;;5071694;28;20015;-28
2023/06/28 07:58:01;;;;;;;;;;;18.50;73.60;;;;;;5071688;28;20379;-30
2023/06/28 08:00:28;;;;;;;;;;;18.50;73.50;;;;;;5071650;28;20007;-29
2023/06/28 08:02:54;;;;;;;;;;;18.50;73.60;;;;;;5071509;28;19908;-31
2023/06/28 08:05:19;;;;;;;;;;;18.60;73.60;;;;;;5071544;28;19967;-28
2023/06/28 08:07:45;;;;;;;;;;;18.60;73.50;;;;;;5071533;28;20341;-26
2023/06/28 08:10:11;;;;;;;;;;;18.60;73.50;;;;;;5074991;28;19965;-27
2023/06/28 08:12:37;;;;;;;;;;;18.60;73.40;;;;;;5075432;28;19955;-31
2023/06/28 08:15:02;;;;;;;;;;;18.70;73.40;;;;;;5075230;28;19912;-31
2023/06/28 08:17:28;;;;;;;;;;;18.70;73.40;;;;;;5075293;28;19908;-28
2023/06/28 08:19:56;;;;;;;;;;;18.80;73.40;;;;;;5075248;28;19930;-29
2023/06/28 08:22:21;;;;;;;;;;;18.80;73.20;;;;;;5075228;28;19958;-29
2023/06/28 08:24:50;;;;;;;;;;;18.90;73.10;;;;;;5075104;28;20323;-28
2023/06/28 08:27:15;;;;;;;;;;;19.00;73.20;;;;;;5074982;28;19965;-30
2023/06/28 08:29:41;;;;;;;;;;;19.00;73.10;;;;;;5075187;28;20319;-30
2023/06/28 08:32:06;;;;;;;;;;;19.10;73.00;;;;;;5074930;28;19913;-32
2023/06/28 08:34:32;;;;;;;;;;;19.10;72.90;;;;;;5074827;28;19913;-28
2023/06/28 08:36:57;;;;;;;;;;;19.20;72.80;;;;;;5074887;28;19999;-28
2023/06/28 08:39:23;;;;;;;;;;;19.20;72.70;;;;;;5074996;28;20376;-27
2023/06/28 08:41:50;;;;;;;;;;;19.30;72.70;;;;;;5074738;28;19915;-34
2023/06/28 08:44:17;;;;;;;;;;;19.30;72.90;;;;;;5074779;28;19908;-31
2023/06/28 08:46:44;;;;;;;;;;;19.30;72.70;;;;;;5074890;28;19915;-29
2023/06/28 08:49:10;;;;;;;;;;;19.40;72.60;;;;;;5074523;28;19995;-27
2023/06/28 08:51:35;;;;;;;;;;;19.50;72.90;;;;;;5074844;28;20008;-28
2023/06/28 08:54:01;;;;;;;;;;;19.50;72.70;;;;;;5074554;28;19924;-31
2023/06/28 08:56:27;;;;;;;;;;;19.60;72.50;;;;;;5074663;28;19990;-29
2023/06/28 08:58:53;;;;;;;;;;;19.70;72.30;;;;;;5074699;28;19908;-27
2023/06/28 09:01:24;;;;;;;;;;;19.70;72.40;;;;;;5074586;28;19998;-28
2023/06/28 09:03:50;;;;;;;;;;;19.70;72.50;;;;;;5074482;28;19999;-31
2023/06/28 09:06:16;;;;;;;;;;;19.70;72.50;;;;;;5074473;28;19951;-28
2023/06/28 09:08:43;;;;;;;;;;;19.80;72.40;;;;;;5074484;28;19913;-29
2023/06/28 09:11:08;;;;;;;;;;;19.80;72.30;;;;;;5074358;28;19908;-28
2023/06/28 09:13:34;;;;;;;;;;;19.90;72.10;;;;;;5074327;28;20291;-26
2023/06/28 09:16:00;;;;;;;;;;;19.80;72.20;;;;;;5074291;28;19909;-28
2023/06/28 09:18:25;;;;;;;;;;;19.80;72.20;;;;;;5074190;28;19909;-30
2023/06/28 09:20:52;;;;;;;;;;;19.80;72.10;;;;;;5073823;28;19932;-28
2023/06/28 09:23:27;;;;;;;;;;;19.80;72.30;;;;;;5074113;28;19908;-30
2023/06/28 09:25:53;;;;;;;;;;;19.70;72.20;;;;;;5074081;28;19915;-28
2023/06/28 09:28:19;;;;;;;;;;;19.80;72.20;;;;;;5073842;28;19920;-28
2023/06/28 09:30:51;;;;;;;;;;;19.70;72.10;;;;;;5074089;28;20287;-28
2023/06/28 09:33:17;;;;;;;;;;;19.70;72.20;;;;;;5055876;28;19912;-32
2023/06/28 09:35:43;;;;;;;;;;;19.70;72.20;;;;;;5074253;28;20363;-27
2023/06/28 09:38:08;;;;;;;;;;;19.70;72.40;;;;;;5073795;28;19915;-29
2023/06/28 09:40:34;;;;;;;;;;;19.70;72.30;;;;;;5073785;28;19920;-28
2023/06/28 09:43:00;;;;;;;;;;;19.80;72.00;;;;;;5073736;28;20287;-28
2023/06/28 09:45:26;;;;;;;;;;;19.90;72.10;;;;;;5073789;28;20002;-29
2023/06/28 09:47:56;;;;;;;;;;;19.90;71.80;;;;;;5073664;28;19913;-31
2023/06/28 09:50:25;;;;;;;;;;;20.00;71.80;;;;;;5073845;28;19974;-28
2023/06/28 09:52:51;;;;;;;;;;;20.10;71.60;;;;;;5073646;28;20345;-27
2023/06/28 09:55:16;;;;;;;;;;;20.10;71.60;;;;;;5073354;28;19963;-32
2023/06/28 09:57:42;;;;;;;;;;;20.10;71.40;;;;;;5073526;28;20352;-27
2023/06/28 10:00:09;;;;;;;;;;;20.10;72.20;;;;;;5073415;28;19909;-28
2023/06/28 10:02:35;;;;;;;;;;;20.10;71.50;;;;;;5055409;28;19947;-29
2023/06/28 10:05:02;;;;;;;;;;;20.10;71.50;;;;;;5073146;28;19916;-27
2023/06/28 10:07:28;;;;;;;;;;;20.00;71.70;;;;;;5073351;28;19913;-28
2023/06/28 10:09:54;;;;;;;;;;;20.00;71.90;;;;;;5073467;28;19909;-26
2023/06/28 10:12:20;;;;;;;;;;;19.90;71.90;;;;;;5073139;28;19958;-27
2023/06/28 10:14:53;;;;;;;;;;;19.90;72.00;;;;;;5073166;28;20293;-29
2023/06/28 10:17:19;;;;;;;;;;;19.90;72.10;;;;;;5073224;28;19915;-27
2023/06/28 10:19:44;;;;;;;;;;;19.80;72.10;;;;;;5073027;28;19908;-30
2023/06/28 10:22:10;;;;;;;;;;;19.90;72.20;;;;;;5073022;28;19908;-31
2023/06/28 10:24:36;;;;;;;;;;;19.90;72.20;;;;;;5073091;28;19999;-26
2023/06/28 10:27:05;;;;;;;;;;;20.00;72.10;;;;;;5073000;28;19938;-30
2023/06/28 10:29:30;;;;;;;;;;;20.10;72.10;;;;;;5073202;28;20003;-31
2023/06/28 10:31:56;;;;;;;;;;;20.10;71.90;;;;;;5072243;28;20021;-27
2023/06/28 10:34:22;;;;;;;;;;;20.20;71.80;;;;;;5072763;28;19999;-30
2023/06/28 10:36:47;;;;;;;;;;;20.20;71.70;;;;;;5073042;28;20275;-31
2023/06/28 10:39:13;;;;;;;;;;;20.30;71.60;;;;;;5072472;28;19908;-30
2023/06/28 10:41:39;;;;;;;;;;;20.50;71.30;;;;;;5072613;28;19908;-29
2023/06/28 10:44:05;;;;;;;;;;;20.70;71.00;;;;;;5072808;28;19987;-26
2023/06/28 10:46:31;;;;;;;;;;;20.90;70.50;;;;;;5072898;28;20261;-28
2023/06/28 10:49:00;;;;;;;;;;;21.20;70.20;;;;;;5072520;28;19995;-29
2023/06/28 10:51:26;;;;;;;;;;;21.30;69.80;;;;;;5072672;28;19919;-27
2023/06/28 10:53:53;;;;;;;;;;;21.50;69.50;;;;;;5072473;28;19919;-27
2023/06/28 10:56:19;;;;;;;;;;;21.70;69.20;;;;;;5072499;28;19915;-27
2023/06/28 10:58:47;;;;;;;;;;;21.80;68.80;;;;;;5072407;28;19909;-29
2023/06/28 11:01:30;;;;;;;;;;;22.00;68.60;;;;;;5072346;28;19908;-39
2023/06/28 11:04:10;;;;;;;;;;;22.10;67.90;;;;;;5072442;28;19919;-27
2023/06/28 11:06:37;;;;;;;;;;;22.30;67.70;;;;;;5072435;28;19970;-28
2023/06/28 11:09:15;;;;;;;;;;;22.50;67.40;;;;;;5072277;28;19912;-31
2023/06/28 11:11:41;;;;;;;;;;;22.60;67.00;;;;;;5072222;28;19908;-29
2023/06/28 11:14:17;;;;;;;;;;;22.70;66.80;;;;;;5072100;28;19917;-28
2023/06/28 11:16:43;;;;;;;;;;;22.70;66.60;;;;;;5072290;28;19985;-28
2023/06/28 11:19:15;;;;;;;;;;;22.90;66.40;;;;;;5072077;28;19908;-27
2023/06/28 11:21:41;;;;;;;;;;;22.90;66.00;;;;;;5072288;28;20425;-36
2023/06/28 11:24:06;;;;;;;;;;;23.00;66.00;;;;;;5072248;28;19914;-27
2023/06/28 11:26:32;;;;;;;;;;;23.10;65.80;;;;;;5072345;28;20383;-31
2023/06/28 11:28:57;;;;;;;;;;;23.30;65.70;;;;;;5053982;28;19989;-28
2023/06/28 11:31:26;;;;;;;;;;;23.40;65.60;;;;;;5072039;28;19908;-31
2023/06/28 11:33:54;;;;;;;;;;;23.50;65.50;;;;;;5072280;28;19916;-32
2023/06/28 11:36:22;;;;;;;;;;;23.50;65.30;;;;;;5072408;28;19908;-31
2023/06/28 11:38:47;;;;;;;;;;;23.60;64.90;;;;;;5072376;28;20026;-28
2023/06/28 11:41:14;;;;;;;;;;;23.60;64.80;;;;;;5072214;28;19909;-31
2023/06/28 11:43:39;;;;;;;;;;;23.70;64.80;;;;;;5074823;28;19909;-28
2023/06/28 11:46:05;;;;;;;;;;;23.60;64.60;;;;;;5076021;28;19979;-28
2023/06/28 11:48:31;;;;;;;;;;;23.60;64.50;;;;;;5076139;28;19914;-27
2023/06/28 11:50:57;;;;;;;;;;;23.60;64.60;;;;;;5076000;28;20334;-29
2023/06/28 11:53:24;;;;;;;;;;;23.60;64.60;;;;;;5075815;28;19915;-28
2023/06/28 11:55:51;;;;;;;;;;;23.60;64.60;;;;;;5075936;28;19946;-30
2023/06/28 11:58:36;;;;;;;;;;;23.60;64.70;;;;;;5075904;28;19914;-27
2023/06/28 12:01:07;;;;;;;;;;;23.60;64.70;;;;;;5076093;28;19909;-29
2023/06/28 12:03:33;;;;;;;;;;;23.50;64.60;;;;;;5075484;28;19908;-30
2023/06/28 12:06:00;;;;;;;;;;;23.40;64.70;;;;;;5075595;28;19950;-27
2023/06/28 12:08:30;;;;;;;;;;;23.40;64.80;;;;;;5075555;28;19916;-27
2023/06/28 12:10:56;;;;;;;;;;;23.30;64.60;;;;;;5075523;28;19919;-28
2023/06/28 12:13:22;;;;;;;;;;;23.30;64.80;;;;;;5075327;28;19909;-27
2023/06/28 12:15:48;;;;;;;;;;;23.30;64.50;;;;;;5075385;28;19909;-27
2023/06/28 12:18:13;;;;;;;;;;;23.20;64.20;;;;;;5075284;28;19916;-29
2023/06/28 12:20:39;;;;;;;;;;;23.10;64.30;;;;;;5075369;28;19909;-26
2023/06/28 12:23:10;;;;;;;;;;;23.00;64.40;;;;;;5075198;28;20379;-28
2023/06/28 12:25:39;;;;;;;;;;;23.10;64.60;;;;;;5075047;28;19909;-27
2023/06/28 12:28:05;;;;;;;;;;;23.20;64.30;;;;;;5074853;28;19924;-30
2023/06/28 12:30:30;;;;;;;;;;;23.20;64.30;;;;;;5075098;28;19915;-28
2023/06/28 12:32:56;;;;;;;;;;;23.30;64.10;;;;;;5075276;28;19912;-28
2023/06/28 12:35:25;;;;;;;;;;;23.30;64.00;;;;;;5074883;28;19912;-29
2023/06/28 12:37:52;;;;;;;;;;;23.30;64.00;;;;;;5075135;28;19987;-29
2023/06/28 12:40:17;;;;;;;;;;;23.40;64.00;;;;;;5074878;28;19909;-30
2023/06/28 12:42:43;;;;;;;;;;;23.60;63.90;;;;;;5074867;28;20003;-31
2023/06/28 12:45:09;;;;;;;;;;;23.80;63.80;;;;;;5075211;28;20271;-27
2023/06/28 12:47:34;;;;;;;;;;;23.90;63.20;;;;;;5075016;28;19909;-35
2023/06/28 12:50:00;;;;;;;;;;;24.10;63.20;;;;;;5075120;28;19908;-30
2023/06/28 12:52:26;;;;;;;;;;;24.20;63.00;;;;;;5074979;28;19908;-27
2023/06/28 12:54:52;;;;;;;;;;;24.40;62.90;;;;;;5074152;28;20011;-28
2023/06/28 12:57:18;;;;;;;;;;;24.50;62.70;;;;;;5074536;28;19951;-30
2023/06/28 12:59:44;;;;;;;;;;;24.70;62.60;;;;;;5074703;28;19908;-32
2023/06/28 13:02:09;;;;;;;;;;;24.70;62.10;;;;;;5056569;28;20379;-27
2023/06/28 13:04:35;;;;;;;;;;;24.70;62.10;;;;;;5074562;28;19905;-30
2023/06/28 13:07:01;;;;;;;;;;;24.70;62.10;;;;;;5074539;28;20015;-31
2023/06/28 13:09:27;;;;;;;;;;;24.70;62.20;;;;;;5056520;28;20328;-29
2023/06/28 13:11:52;;;;;;;;;;;24.70;62.00;;;;;;5056517;28;19915;-29
2023/06/28 13:14:18;;;;;;;;;;;24.70;62.10;;;;;;5074134;28;19966;-27
2023/06/28 13:16:43;;;;;;;;;;;24.80;62.10;;;;;;5074266;28;19908;-27
2023/06/28 13:19:09;;;;;;;;;;;24.90;62.00;;;;;;5074172;28;19962;-27
2023/06/28 13:21:35;;;;;;;;;;;25.00;61.70;;;;;;5074272;28;19909;-26
2023/06/28 13:24:00;;;;;;;;;;;25.20;61.70;;;;;;5074578;28;20009;-28
2023/06/28 13:26:25;;;;;;;;;;;25.30;61.30;;;;;;5074207;28;19919;-28
2023/06/28 13:28:51;;;;;;;;;;;25.50;61.30;;;;;;5074025;28;19952;-33
2023/06/28 13:31:16;;;;;;;;;;;25.80;61.10;;;;;;5074000;28;19912;-30
2023/06/28 13:33:42;;;;;;;;;;;26.00;60.40;;;;;;5074046;28;19919;-30
2023/06/28 13:36:07;;;;;;;;;;;26.10;59.80;;;;;;5073965;28;19908;-28
2023/06/28 13:38:33;;;;;;;;;;;26.20;59.30;;;;;;5074275;28;19908;-27
2023/06/28 13:40:58;;;;;;;;;;;26.20;58.90;;;;;;5073882;28;20001;-29
2023/06/28 13:43:24;;;;;;;;;;;26.40;59.10;;;;;;5074149;28;19909;-29
2023/06/28 13:45:49;;;;;;;;;;;26.50;59.10;;;;;;5074016;28;19908;-28
2023/06/28 13:48:15;;;;;;;;;;;26.60;58.80;;;;;;5073942;28;19912;-30
2023/06/28 13:50:40;;;;;;;;;;;26.70;58.40;;;;;;5073777;28;20280;-29
2023/06/28 13:53:06;;;;;;;;;;;26.80;58.20;;;;;;5073591;28;20622;-29
2023/06/28 13:55:32;;;;;;;;;;;26.70;58.20;;;;;;5073890;28;19966;-34
2023/06/28 13:57:57;;;;;;;;;;;26.60;58.10;;;;;;5073518;28;19915;-28
2023/06/28 14:00:23;;;;;;;;;;;26.60;58.50;;;;;;5073508;28;20004;-28
2023/06/28 14:02:49;;;;;;;;;;;26.60;58.40;;;;;;5073418;28;20383;-31
2023/06/28 14:05:16;;;;;;;;;;;26.70;58.50;;;;;;5073195;28;19909;-33
2023/06/28 14:07:41;;;;;;;;;;;26.80;58.50;;;;;;5072985;28;19909;-28
2023/06/28 14:10:07;;;;;;;;;;;26.90;58.20;;;;;;5073551;28;19999;-32